sensor_id;sensor_type;location;lat;lon;timestamp;pressure;altitude;pressure_sealevel;temperature;humidity
43436;BME280;36399;51.444;-2.018;2024-03-06T00:01:55;100719.94;;;-0.68;100.00
43436;BME280;36399;51.444;-2.018;2024-03-06T00:04:21;100729.09;;;-0.73;100.00
43436;BME280;36399;51.444;-2.018;2024-03-06T00:06:47;100719.94;;;-0.68;100.00
43436;BME280;36399;51.444;-2.018;2024-03-06T00:09:13;100717.66;;;-0.63;100.00
43436;BME280;36399;51.444;-2.018;2024-03-06T00:11:39;100719.47;;;-0.75;100.00
43436;BME280;36399;51.444;-2.018;2024-03-06T00:14:06;100714.84;;;-0.81;100.00
43436;BME280;36399;51.444;-2.018;2024-03-06T00:16:32;100718.03;;;-0.85;100.00
43436;BME280;36399;51.444;-2.018;2024-03-06T00:18:58;100722.47;;;-0.82;100.00
43436;BME280;36399;51.444;-2.018;2024-03-06T00:21:24;100715.72;;;-0.80;100.00
43436;BME280;36399;51.444;-2.018;2024-03-06T00:23:49;100715.53;;;-0.83;100.00
43436;BME280;36399;51.444;-2.018;2024-03-06T00:26:15;100708.50;;;-0.86;100.00
43436;BME280;36399;51.444;-2.018;2024-03-06T00:28:41;100714.97;;;-0.92;100.00
43436;BME280;36399;51.444;-2.018;2024-03-06T00:31:07;100714.38;;;-0.88;100.00
43436;BME280;36399;51.444;-2.018;2024-03-06T00:33:33;100708.50;;;-0.86;100.00
43436;BME280;36399;51.444;-2.018;2024-03-06T00:35:59;100706.50;;;-0.77;100.00
43436;BME280;36399;51.444;-2.018;2024-03-06T00:38:25;100709.53;;;-0.97;100.00
43436;BME280;36399;51.444;-2.018;2024-03-06T00:40:51;100710.16;;;-1.01;100.00
43436;BME280;36399;51.444;-2.018;2024-03-06T00:43:17;100714.00;;;-1.08;100.00
43436;BME280;36399;51.444;-2.018;2024-03-06T00:45:43;100708.13;;;-1.05;100.00
43436;BME280;36399;51.444;-2.018;2024-03-06T00:48:09;100704.56;;;-1.07;100.00
43436;BME280;36399;51.444;-2.018;2024-03-06T00:50:35;100709.63;;;-1.09;100.00
43436;BME280;36399;51.444;-2.018;2024-03-06T00:53:01;100704.56;;;-1.07;100.00
43436;BME280;36399;51.444;-2.018;2024-03-06T00:55:28;100705.00;;;-1.01;100.00
43436;BME280;36399;51.444;-2.018;2024-03-06T00:57:54;100706.06;;;-1.11;100.00
43436;BME280;36399;51.444;-2.018;2024-03-06T01:00:21;100705.59;;;-1.18;100.00
43436;BME280;36399;51.444;-2.018;2024-03-06T01:02:47;100700.66;;;-1.29;100.00
43436;BME280;36399;51.444;-2.018;2024-03-06T01:05:13;100704.81;;;-1.31;100.00
43436;BME280;36399;51.444;-2.018;2024-03-06T01:07:39;100701.16;;;-1.34;100.00
43436;BME280;36399;51.444;-2.018;2024-03-06T01:10:06;100699.66;;;-1.31;100.00
43436;BME280;36399;51.444;-2.018;2024-03-06T01:12:33;100706.81;;;-1.40;100.00
43436;BME280;36399;51.444;-2.018;2024-03-06T01:14:59;100707.31;;;-1.45;100.00
43436;BME280;36399;51.444;-2.018;2024-03-06T01:17:25;100694.53;;;-1.31;100.00
43436;BME280;36399;51.444;-2.018;2024-03-06T01:19:51;100689.75;;;-1.24;100.00
43436;BME280;36399;51.444;-2.018;2024-03-06T01:22:18;100688.75;;;-1.13;100.00
43436;BME280;36399;51.444;-2.018;2024-03-06T01:24:44;100690.13;;;-1.18;100.00
43436;BME280;36399;51.444;-2.018;2024-03-06T01:27:10;100681.22;;;-1.23;100.00
43436;BME280;36399;51.444;-2.018;2024-03-06T01:29:36;100691.75;;;-1.34;100.00
43436;BME280;36399;51.444;-2.018;2024-03-06T01:32:02;100688.50;;;-1.44;100.00
43436;BME280;36399;51.444;-2.018;2024-03-06T01:34:28;100686.69;;;-1.59;100.00
43436;BME280;36399;51.444;-2.018;2024-03-06T01:36:54;100679.06;;;-1.57;100.00
43436;BME280;36399;51.444;-2.018;2024-03-06T01:39:20;100684.03;;;-1.60;100.00
43436;BME280;36399;51.444;-2.018;2024-03-06T01:41:47;100681.09;;;-1.53;100.00
43436;BME280;36399;51.444;-2.018;2024-03-06T01:44:14;100661.97;;;-1.43;100.00
43436;BME280;36399;51.444;-2.018;2024-03-06T01:46:40;100661.88;;;-1.45;100.00
43436;BME280;36399;51.444;-2.018;2024-03-06T01:49:07;100669.00;;;-1.54;100.00
43436;BME280;36399;51.444;-2.018;2024-03-06T01:51:35;100671.16;;;-1.60;100.00
43436;BME280;36399;51.444;-2.018;2024-03-06T01:54:02;100664.41;;;-1.58;100.00
43436;BME280;36399;51.444;-2.018;2024-03-06T01:56:31;100659.28;;;-1.45;100.00
43436;BME280;36399;51.444;-2.018;2024-03-06T01:58:58;100660.06;;;-1.46;100.00
43436;BME280;36399;51.444;-2.018;2024-03-06T02:01:25;100661.38;;;-1.52;100.00
43436;BME280;36399;51.444;-2.018;2024-03-06T02:03:52;100651.78;;;-1.55;100.00
43436;BME280;36399;51.444;-2.018;2024-03-06T02:06:18;100653.13;;;-1.60;100.00
43436;BME280;36399;51.444;-2.018;2024-03-06T02:08:45;100660.88;;;-1.73;100.00
43436;BME280;36399;51.444;-2.018;2024-03-06T02:11:12;100660.88;;;-1.73;100.00
43436;BME280;36399;51.444;-2.018;2024-03-06T02:13:39;100660.06;;;-1.72;100.00
43436;BME280;36399;51.444;-2.018;2024-03-06T02:16:06;100661.38;;;-1.79;100.00
43436;BME280;36399;51.444;-2.018;2024-03-06T02:18:32;100655.22;;;-1.68;100.00
43436;BME280;36399;51.444;-2.018;2024-03-06T02:20:58;100656.91;;;-1.68;100.00
43436;BME280;36399;51.444;-2.018;2024-03-06T02:23:24;100652.75;;;-1.66;100.00
43436;BME280;36399;51.444;-2.018;2024-03-06T02:25:50;100641.66;;;-1.78;100.00
43436;BME280;36399;51.444;-2.018;2024-03-06T02:28:16;100643.84;;;-1.98;100.00
43436;BME280;36399;51.444;-2.018;2024-03-06T02:30:43;100632.97;;;-2.07;100.00
43436;BME280;36399;51.444;-2.018;2024-03-06T02:33:09;100635.78;;;-2.15;100.00
43436;BME280;36399;51.444;-2.018;2024-03-06T02:35:35;100638.16;;;-2.18;100.00
43436;BME280;36399;51.444;-2.018;2024-03-06T02:38:03;100634.13;;;-2.15;100.00
43436;BME280;36399;51.444;-2.018;2024-03-06T02:40:33;100618.81;;;-2.00;100.00
43436;BME280;36399;51.444;-2.018;2024-03-06T02:42:59;100612.78;;;-2.01;100.00
43436;BME280;36399;51.444;-2.018;2024-03-06T02:45:25;100616.16;;;-2.02;100.00
43436;BME280;36399;51.444;-2.018;2024-03-06T02:47:51;100611.59;;;-2.06;100.00
43436;BME280;36399;51.444;-2.018;2024-03-06T02:50:17;100617.09;;;-2.13;100.00
43436;BME280;36399;51.444;-2.018;2024-03-06T02:52:42;100611.56;;;-2.19;100.00
43436;BME280;36399;51.444;-2.018;2024-03-06T02:55:08;100616.31;;;-2.25;100.00
43436;BME280;36399;51.444;-2.018;2024-03-06T02:57:34;100613.75;;;-2.25;100.00
43436;BME280;36399;51.444;-2.018;2024-03-06T03:00:00;100601.88;;;-2.10;100.00
43436;BME280;36399;51.444;-2.018;2024-03-06T03:02:26;100582.31;;;-1.95;100.00
43436;BME280;36399;51.444;-2.018;2024-03-06T03:04:52;100579.72;;;-1.81;100.00
43436;BME280;36399;51.444;-2.018;2024-03-06T03:07:18;100582.38;;;-1.80;100.00
43436;BME280;36399;51.444;-2.018;2024-03-06T03:09:47;100582.88;;;-1.85;100.00
43436;BME280;36399;51.444;-2.018;2024-03-06T03:12:13;100575.28;;;-1.84;100.00
43436;BME280;36399;51.444;-2.018;2024-03-06T03:14:40;100573.09;;;-1.78;100.00
43436;BME280;36399;51.444;-2.018;2024-03-06T03:17:07;100555.25;;;-1.75;100.00
43436;BME280;36399;51.444;-2.018;2024-03-06T03:19:33;100548.41;;;-1.61;100.00
43436;BME280;36399;51.444;-2.018;2024-03-06T03:21:59;100538.69;;;-1.52;100.00
43436;BME280;36399;51.444;-2.018;2024-03-06T03:24:25;100542.34;;;-1.62;100.00
43436;BME280;36399;51.444;-2.018;2024-03-06T03:26:54;100540.53;;;-1.77;100.00
43436;BME280;36399;51.444;-2.018;2024-03-06T03:29:20;100550.03;;;-1.89;100.00
43436;BME280;36399;51.444;-2.018;2024-03-06T03:31:46;100546.19;;;-1.96;100.00
43436;BME280;36399;51.444;-2.018;2024-03-06T03:34:12;100547.38;;;-1.91;100.00
43436;BME280;36399;51.444;-2.018;2024-03-06T03:36:42;100539.75;;;-1.89;100.00
43436;BME280;36399;51.444;-2.018;2024-03-06T03:39:10;100535.78;;;-1.84;100.00
43436;BME280;36399;51.444;-2.018;2024-03-06T03:41:48;100527.88;;;-1.87;100.00
43436;BME280;36399;51.444;-2.018;2024-03-06T03:44:15;100522.34;;;-1.94;100.00
43436;BME280;36399;51.444;-2.018;2024-03-06T03:46:42;100528.09;;;-1.98;100.00
43436;BME280;36399;51.444;-2.018;2024-03-06T03:49:08;100515.44;;;-1.95;100.00
43436;BME280;36399;51.444;-2.018;2024-03-06T03:51:35;100529.06;;;-1.96;100.00
43436;BME280;36399;51.444;-2.018;2024-03-06T03:54:02;100518.59;;;-1.99;100.00
43436;BME280;36399;51.444;-2.018;2024-03-06T03:56:28;100525.53;;;-1.98;100.00
43436;BME280;36399;51.444;-2.018;2024-03-06T03:58:56;100519.56;;;-1.83;100.00
43436;BME280;36399;51.444;-2.018;2024-03-06T04:01:22;100513.19;;;-1.75;100.00
43436;BME280;36399;51.444;-2.018;2024-03-06T04:03:48;100517.31;;;-1.64;100.00
43436;BME280;36399;51.444;-2.018;2024-03-06T04:06:14;100523.13;;;-1.81;100.00
43436;BME280;36399;51.444;-2.018;2024-03-06T04:08:40;100525.53;;;-1.98;100.00
43436;BME280;36399;51.444;-2.018;2024-03-06T04:11:06;100524.31;;;-2.16;100.00
43436;BME280;36399;51.444;-2.018;2024-03-06T04:13:36;100533.44;;;-2.34;100.00
43436;BME280;36399;51.444;-2.018;2024-03-06T04:16:02;100538.97;;;-2.41;100.00
43436;BME280;36399;51.444;-2.018;2024-03-06T04:18:29;100532.84;;;-2.30;100.00
43436;BME280;36399;51.444;-2.018;2024-03-06T04:21:03;100535.03;;;-2.49;100.00
43436;BME280;36399;51.444;-2.018;2024-03-06T04:23:29;100535.59;;;-2.53;100.00
43436;BME280;36399;51.444;-2.018;2024-03-06T04:25:55;100545.69;;;-2.57;100.00
43436;BME280;36399;51.444;-2.018;2024-03-06T04:28:21;100549.09;;;-2.69;100.00
43436;BME280;36399;51.444;-2.018;2024-03-06T04:30:47;100551.38;;;-2.74;100.00
43436;BME280;36399;51.444;-2.018;2024-03-06T04:33:13;100552.25;;;-2.73;100.00
43436;BME280;36399;51.444;-2.018;2024-03-06T04:35:41;100550.88;;;-2.68;100.00
43436;BME280;36399;51.444;-2.018;2024-03-06T04:38:07;100549.09;;;-2.69;100.00
43436;BME280;36399;51.444;-2.018;2024-03-06T04:40:34;100541.50;;;-2.68;100.00
43436;BME280;36399;51.444;-2.018;2024-03-06T04:43:00;100550.41;;;-2.63;100.00
43436;BME280;36399;51.444;-2.018;2024-03-06T04:45:26;100538.97;;;-2.55;100.00
43436;BME280;36399;51.444;-2.018;2024-03-06T04:47:53;100548.81;;;-2.61;100.00
43436;BME280;36399;51.444;-2.018;2024-03-06T04:50:20;100554.53;;;-2.65;100.00
43436;BME280;36399;51.444;-2.018;2024-03-06T04:52:46;100554.53;;;-2.78;100.00
43436;BME280;36399;51.444;-2.018;2024-03-06T04:55:12;100552.25;;;-2.73;100.00
43436;BME280;36399;51.444;-2.018;2024-03-06T04:57:43;100554.94;;;-2.72;100.00
43436;BME280;36399;51.444;-2.018;2024-03-06T05:00:10;100551.78;;;-2.68;100.00
43436;BME280;36399;51.444;-2.018;2024-03-06T05:02:36;100551.16;;;-2.77;100.00
43436;BME280;36399;51.444;-2.018;2024-03-06T05:05:03;100557.59;;;-2.70;100.00
43436;BME280;36399;51.444;-2.018;2024-03-06T05:07:30;100553.84;;;-2.75;100.00
43436;BME280;36399;51.444;-2.018;2024-03-06T05:09:57;100557.09;;;-2.65;100.00
43436;BME280;36399;51.444;-2.018;2024-03-06T05:12:24;100562.06;;;-2.68;100.00
43436;BME280;36399;51.444;-2.018;2024-03-06T05:14:51;100568.97;;;-2.67;100.00
43436;BME280;36399;51.444;-2.018;2024-03-06T05:17:18;100561.63;;;-2.74;100.00
43436;BME280;36399;51.444;-2.018;2024-03-06T05:19:48;100553.84;;;-2.75;100.00
43436;BME280;36399;51.444;-2.018;2024-03-06T05:22:15;100562.41;;;-2.88;100.00
43436;BME280;36399;51.444;-2.018;2024-03-06T05:24:42;100564.56;;;-2.94;100.00
43436;BME280;36399;51.444;-2.018;2024-03-06T05:27:08;100556.84;;;-2.94;100.00
43436;BME280;36399;51.444;-2.018;2024-03-06T05:29:36;100556.91;;;-3.06;100.00
43436;BME280;36399;51.444;-2.018;2024-03-06T05:32:03;100561.94;;;-3.07;100.00
43436;BME280;36399;51.444;-2.018;2024-03-06T05:34:33;100563.56;;;-2.96;100.00
43436;BME280;36399;51.444;-2.018;2024-03-06T05:37:00;100548.47;;;-2.53;100.00
43436;BME280;36399;51.444;-2.018;2024-03-06T05:39:27;100540.34;;;-2.46;100.00
43436;BME280;36399;51.444;-2.018;2024-03-06T05:42:03;100536.81;;;-2.35;100.00
43436;BME280;36399;51.444;-2.018;2024-03-06T05:44:33;100544.00;;;-2.43;100.00
43436;BME280;36399;51.444;-2.018;2024-03-06T05:47:00;100542.72;;;-2.49;100.00
43436;BME280;36399;51.444;-2.018;2024-03-06T05:49:29;100550.81;;;-2.57;100.00
43436;BME280;36399;51.444;-2.018;2024-03-06T05:51:55;100535.41;;;-2.57;100.00
43436;BME280;36399;51.444;-2.018;2024-03-06T05:54:21;100538.53;;;-2.61;100.00
43436;BME280;36399;51.444;-2.018;2024-03-06T05:56:48;100541.88;;;-2.75;100.00
43436;BME280;36399;51.444;-2.018;2024-03-06T05:59:15;100537.13;;;-2.82;100.00
43436;BME280;36399;51.444;-2.018;2024-03-06T06:01:41;100543.53;;;-2.89;100.00
43436;BME280;36399;51.444;-2.018;2024-03-06T06:04:11;100551.03;;;-2.92;100.00
43436;BME280;36399;51.444;-2.018;2024-03-06T06:06:37;100550.03;;;-2.94;100.00
43436;BME280;36399;51.444;-2.018;2024-03-06T06:09:03;100545.91;;;-2.92;100.00
43436;BME280;36399;51.444;-2.018;2024-03-06T06:11:32;100547.38;;;-2.95;100.00
43436;BME280;36399;51.444;-2.018;2024-03-06T06:14:01;100539.88;;;-2.92;100.00
43436;BME280;36399;51.444;-2.018;2024-03-06T06:16:34;100543.44;;;-2.90;100.00
43436;BME280;36399;51.444;-2.018;2024-03-06T06:19:01;100531.97;;;-2.82;100.00
43436;BME280;36399;51.444;-2.018;2024-03-06T06:21:27;100530.41;;;-2.80;100.00
43436;BME280;36399;51.444;-2.018;2024-03-06T06:23:53;100522.81;;;-2.78;100.00
43436;BME280;36399;51.444;-2.018;2024-03-06T06:26:19;100522.59;;;-2.81;100.00
43436;BME280;36399;51.444;-2.018;2024-03-06T06:28:46;100523.13;;;-2.61;100.00
43436;BME280;36399;51.444;-2.018;2024-03-06T06:31:12;100497.22;;;-2.64;100.00
43436;BME280;36399;51.444;-2.018;2024-03-06T06:33:38;100491.88;;;-2.67;100.00
43436;BME280;36399;51.444;-2.018;2024-03-06T06:36:04;100464.44;;;-2.41;100.00
43436;BME280;36399;51.444;-2.018;2024-03-06T06:38:30;100456.63;;;-2.43;100.00
43436;BME280;36399;51.444;-2.018;2024-03-06T06:40:56;100430.41;;;-2.37;100.00
43436;BME280;36399;51.444;-2.018;2024-03-06T06:43:23;100417.94;;;-2.31;100.00
43436;BME280;36399;51.444;-2.018;2024-03-06T06:45:49;100384.00;;;-2.26;100.00
43436;BME280;36399;51.444;-2.018;2024-03-06T06:48:15;100387.75;;;-2.20;100.00
43436;BME280;36399;51.444;-2.018;2024-03-06T06:50:41;100349.66;;;-2.13;100.00
43436;BME280;36399;51.444;-2.018;2024-03-06T06:53:07;100331.56;;;-2.14;100.00
43436;BME280;36399;51.444;-2.018;2024-03-06T06:55:33;100330.16;;;-2.09;100.00
43436;BME280;36399;51.444;-2.018;2024-03-06T06:57:59;100334.72;;;-2.05;100.00
43436;BME280;36399;51.444;-2.018;2024-03-06T07:00:25;100317.06;;;-1.99;100.00
43436;BME280;36399;51.444;-2.018;2024-03-06T07:02:51;100314.97;;;-1.92;100.00
43436;BME280;36399;51.444;-2.018;2024-03-06T07:05:17;100297.91;;;-1.89;100.00
43436;BME280;36399;51.444;-2.018;2024-03-06T07:07:43;100286.22;;;-1.84;100.00
43436;BME280;36399;51.444;-2.018;2024-03-06T07:10:09;100272.91;;;-1.77;100.00
43436;BME280;36399;51.444;-2.018;2024-03-06T07:12:36;100272.03;;;-1.78;100.00
43436;BME280;36399;51.444;-2.018;2024-03-06T07:15:02;100270.16;;;-1.80;100.00
43436;BME280;36399;51.444;-2.018;2024-03-06T07:17:28;100269.63;;;-1.75;100.00
43436;BME280;36399;51.444;-2.018;2024-03-06T07:19:54;100260.47;;;-1.70;100.00
43436;BME280;36399;51.444;-2.018;2024-03-06T07:22:21;100247.09;;;-1.64;100.00
43436;BME280;36399;51.444;-2.018;2024-03-06T07:24:48;100239.38;;;-1.49;100.00
43436;BME280;36399;51.444;-2.018;2024-03-06T07:27:14;100256.22;;;-1.69;100.00
43436;BME280;36399;51.444;-2.018;2024-03-06T07:29:40;100251.09;;;-1.84;100.00
43436;BME280;36399;51.444;-2.018;2024-03-06T07:32:06;100243.38;;;-1.84;100.00
43436;BME280;36399;51.444;-2.018;2024-03-06T07:34:32;100240.09;;;-1.81;100.00
43436;BME280;36399;51.444;-2.018;2024-03-06T07:36:58;100219.66;;;-1.64;100.00
43436;BME280;36399;51.444;-2.018;2024-03-06T07:39:27;100214.00;;;-1.73;100.00
43436;BME280;36399;51.444;-2.018;2024-03-06T07:41:53;100215.16;;;-1.82;100.00
43436;BME280;36399;51.444;-2.018;2024-03-06T07:44:20;100219.06;;;-1.74;100.00
43436;BME280;36399;51.444;-2.018;2024-03-06T07:46:46;100218.44;;;-1.70;100.00
43436;BME280;36399;51.444;-2.018;2024-03-06T07:49:12;100215.22;;;-1.66;100.00
43436;BME280;36399;51.444;-2.018;2024-03-06T07:51:38;100207.94;;;-1.44;100.00
43436;BME280;36399;51.444;-2.018;2024-03-06T07:54:06;100210.59;;;-1.57;100.00
43436;BME280;36399;51.444;-2.018;2024-03-06T07:56:32;100198.91;;;-1.52;100.00
43436;BME280;36399;51.444;-2.018;2024-03-06T07:58:59;100187.00;;;-1.50;100.00
43436;BME280;36399;51.444;-2.018;2024-03-06T08:01:25;100197.97;;;-1.38;100.00
43436;BME280;36399;51.444;-2.018;2024-03-06T08:03:54;100193.34;;;-1.29;100.00
43436;BME280;36399;51.444;-2.018;2024-03-06T08:06:20;100170.50;;;-1.22;100.00
43436;BME280;36399;51.444;-2.018;2024-03-06T08:08:47;100166.00;;;-1.10;100.00
43436;BME280;36399;51.444;-2.018;2024-03-06T08:11:13;100148.94;;;-1.08;100.00
43436;BME280;36399;51.444;-2.018;2024-03-06T08:13:39;100124.66;;;-0.97;100.00
43436;BME280;36399;51.444;-2.018;2024-03-06T08:16:06;100115.00;;;-0.85;100.00
43436;BME280;36399;51.444;-2.018;2024-03-06T08:18:33;100101.44;;;-0.65;100.00
43436;BME280;36399;51.444;-2.018;2024-03-06T08:21:00;100107.66;;;-0.77;100.00
43436;BME280;36399;51.444;-2.018;2024-03-06T08:23:27;100102.25;;;-0.66;100.00
43436;BME280;36399;51.444;-2.018;2024-03-06T08:25:53;100094.50;;;-0.49;100.00
43436;BME280;36399;51.444;-2.018;2024-03-06T08:28:19;100076.09;;;-0.39;100.00
43436;BME280;36399;51.444;-2.018;2024-03-06T08:30:45;100082.59;;;-0.47;100.00
43436;BME280;36399;51.444;-2.018;2024-03-06T08:33:11;100075.41;;;-0.53;100.00
43436;BME280;36399;51.444;-2.018;2024-03-06T08:35:37;100072.88;;;-0.35;100.00
43436;BME280;36399;51.444;-2.018;2024-03-06T08:38:03;100030.38;;;0.10;100.00
43436;BME280;36399;51.444;-2.018;2024-03-06T08:40:29;100022.69;;;0.12;100.00
43436;BME280;36399;51.444;-2.018;2024-03-06T08:42:57;99995.44;;;0.36;100.00
43436;BME280;36399;51.444;-2.018;2024-03-06T08:45:23;100003.81;;;0.13;100.00
43436;BME280;36399;51.444;-2.018;2024-03-06T08:47:49;100002.06;;;0.12;100.00
43436;BME280;36399;51.444;-2.018;2024-03-06T08:50:15;100004.03;;;-0.01;100.00
43436;BME280;36399;51.444;-2.018;2024-03-06T08:52:42;99981.97;;;0.24;100.00
43436;BME280;36399;51.444;-2.018;2024-03-06T08:55:08;99978.84;;;0.31;100.00
43436;BME280;36399;51.444;-2.018;2024-03-06T08:57:35;99967.97;;;0.38;100.00
43436;BME280;36399;51.444;-2.018;2024-03-06T09:00:03;99947.94;;;0.52;100.00
43436;BME280;36399;51.444;-2.018;2024-03-06T09:02:29;99926.81;;;0.41;100.00
43436;BME280;36399;51.444;-2.018;2024-03-06T09:04:55;99917.75;;;0.51;100.00
43436;BME280;36399;51.444;-2.018;2024-03-06T09:07:22;99937.13;;;0.41;100.00
43436;BME280;36399;51.444;-2.018;2024-03-06T09:09:52;99918.66;;;0.51;100.00
43436;BME280;36399;51.444;-2.018;2024-03-06T09:12:18;99933.41;;;0.35;100.00
43436;BME280;36399;51.444;-2.018;2024-03-06T09:14:44;99934.00;;;0.48;100.00
43436;BME280;36399;51.444;-2.018;2024-03-06T09:17:11;99903.09;;;0.90;100.00
43436;BME280;36399;51.444;-2.018;2024-03-06T09:19:41;99876.53;;;1.13;100.00
43436;BME280;36399;51.444;-2.018;2024-03-06T09:22:07;99891.38;;;0.98;100.00
43436;BME280;36399;51.444;-2.018;2024-03-06T09:24:33;99876.91;;;1.22;100.00
43436;BME280;36399;51.444;-2.018;2024-03-06T09:27:04;99881.13;;;1.20;100.00
43436;BME280;36399;51.444;-2.018;2024-03-06T09:29:30;99859.66;;;1.44;100.00
43436;BME280;36399;51.444;-2.018;2024-03-06T09:31:56;99838.38;;;1.73;100.00
43436;BME280;36399;51.444;-2.018;2024-03-06T09:34:22;99807.97;;;2.14;100.00
43436;BME280;36399;51.444;-2.018;2024-03-06T09:36:50;99787.91;;;2.58;100.00
43436;BME280;36399;51.444;-2.018;2024-03-06T09:39:17;99797.84;;;2.45;100.00
43436;BME280;36399;51.444;-2.018;2024-03-06T09:41:46;99820.13;;;1.93;100.00
43436;BME280;36399;51.444;-2.018;2024-03-06T09:44:13;99823.75;;;1.98;100.00
43436;BME280;36399;51.444;-2.018;2024-03-06T09:46:44;99798.78;;;2.47;100.00
43436;BME280;36399;51.444;-2.018;2024-03-06T09:49:18;99775.19;;;2.91;100.00
43436;BME280;36399;51.444;-2.018;2024-03-06T09:51:48;99747.13;;;3.33;100.00
43436;BME280;36399;51.444;-2.018;2024-03-06T09:54:16;99771.25;;;3.03;100.00
43436;BME280;36399;51.444;-2.018;2024-03-06T09:56:43;99775.66;;;3.06;100.00
43436;BME280;36399;51.444;-2.018;2024-03-06T09:59:11;99750.16;;;3.48;100.00
43436;BME280;36399;51.444;-2.018;2024-03-06T10:01:54;99748.13;;;3.66;100.00
43436;BME280;36399;51.444;-2.018;2024-03-06T10:04:25;99718.91;;;4.05;100.00
43436;BME280;36399;51.444;-2.018;2024-03-06T10:06:57;99649.50;;;5.07;100.00
43436;BME280;36399;51.444;-2.018;2024-03-06T10:09:25;99619.97;;;5.46;100.00
43436;BME280;36399;51.444;-2.018;2024-03-06T10:11:52;99508.13;;;6.59;100.00
43436;BME280;36399;51.444;-2.018;2024-03-06T10:14:22;99469.66;;;7.13;100.00
43436;BME280;36399;51.444;-2.018;2024-03-06T10:16:56;99436.91;;;7.42;100.00
43436;BME280;36399;51.444;-2.018;2024-03-06T10:19:23;99340.06;;;8.65;100.00
43436;BME280;36399;51.444;-2.018;2024-03-06T10:21:50;99444.22;;;7.83;100.00
43436;BME280;36399;51.444;-2.018;2024-03-06T10:24:25;99431.41;;;8.27;100.00
43436;BME280;36399;51.444;-2.018;2024-03-06T10:26:54;99470.66;;;8.32;100.00
43436;BME280;36399;51.444;-2.018;2024-03-06T10:29:21;99537.25;;;8.84;100.00
43436;BME280;36399;51.444;-2.018;2024-03-06T10:31:52;99738.59;;;7.22;100.00
43436;BME280;36399;51.444;-2.018;2024-03-06T10:34:18;99858.09;;;7.37;100.00
43436;BME280;36399;51.444;-2.018;2024-03-06T10:36:46;99903.00;;;8.32;100.00
43436;BME280;36399;51.444;-2.018;2024-03-06T10:39:16;99969.88;;;8.75;100.00
43436;BME280;36399;51.444;-2.018;2024-03-06T10:41:46;100036.78;;;9.23;100.00
43436;BME280;36399;51.444;-2.018;2024-03-06T10:44:21;100162.03;;;8.90;100.00
43436;BME280;36399;51.444;-2.018;2024-03-06T10:46:55;100280.88;;;9.01;100.00
43436;BME280;36399;51.444;-2.018;2024-03-06T10:49:27;100414.75;;;8.72;100.00
43436;BME280;36399;51.444;-2.018;2024-03-06T10:52:04;100507.88;;;9.05;100.00
43436;BME280;36399;51.444;-2.018;2024-03-06T10:54:33;100556.59;;;10.40;100.00
43436;BME280;36399;51.444;-2.018;2024-03-06T10:57:01;100735.56;;;9.78;100.00
43436;BME280;36399;51.444;-2.018;2024-03-06T10:59:28;100837.03;;;11.15;100.00
43436;BME280;36399;51.444;-2.018;2024-03-06T11:01:55;100993.69;;;10.65;100.00
43436;BME280;36399;51.444;-2.018;2024-03-06T11:04:29;101042.38;;;12.36;100.00
43436;BME280;36399;51.444;-2.018;2024-03-06T11:06:57;101112.38;;;11.75;100.00
43436;BME280;36399;51.444;-2.018;2024-03-06T11:09:31;101106.13;;;13.35;100.00
43436;BME280;36399;51.444;-2.018;2024-03-06T11:11:58;101105.16;;;14.08;100.00
43436;BME280;36399;51.444;-2.018;2024-03-06T11:14:24;101036.22;;;12.99;100.00
43436;BME280;36399;51.444;-2.018;2024-03-06T11:19:23;101006.88;;;11.57;100.00
43436;BME280;36399;51.444;-2.018;2024-03-06T11:21:49;101011.47;;;12.23;100.00
43436;BME280;36399;51.444;-2.018;2024-03-06T11:24:20;101002.78;;;11.74;100.00
43436;BME280;36399;51.444;-2.018;2024-03-06T11:26:50;101006.38;;;11.79;100.00
43436;BME280;36399;51.444;-2.018;2024-03-06T11:29:18;100987.72;;;10.73;100.00
43436;BME280;36399;51.444;-2.018;2024-03-06T11:32:06;100994.13;;;10.08;100.00
43436;BME280;36399;51.444;-2.018;2024-03-06T11:34:34;100991.97;;;11.09;100.00
43436;BME280;36399;51.444;-2.018;2024-03-06T11:37:04;100976.75;;;11.41;100.00
43436;BME280;36399;51.444;-2.018;2024-03-06T11:39:35;100973.06;;;12.37;100.00
43436;BME280;36399;51.444;-2.018;2024-03-06T11:42:02;100974.59;;;11.67;100.00
43436;BME280;36399;51.444;-2.018;2024-03-06T11:44:31;100972.34;;;13.17;100.00
43436;BME280;36399;51.444;-2.018;2024-03-06T11:46:59;100975.53;;;12.94;100.00
43436;BME280;36399;51.444;-2.018;2024-03-06T11:49:30;100973.53;;;12.71;100.00
43436;BME280;36399;51.444;-2.018;2024-03-06T11:52:02;100966.19;;;11.88;100.00
43436;BME280;36399;51.444;-2.018;2024-03-06T11:54:29;100944.75;;;11.14;100.00
43436;BME280;36399;51.444;-2.018;2024-03-06T11:56:57;100928.63;;;10.50;100.00
43436;BME280;36399;51.444;-2.018;2024-03-06T11:59:25;100922.63;;;11.01;100.00
43436;BME280;36399;51.444;-2.018;2024-03-06T12:01:52;100915.91;;;11.18;100.00
43436;BME280;36399;51.444;-2.018;2024-03-06T12:04:19;100913.47;;;13.19;100.00
43436;BME280;36399;51.444;-2.018;2024-03-06T12:06:46;100912.25;;;13.85;100.00
43436;BME280;36399;51.444;-2.018;2024-03-06T12:09:12;100919.31;;;13.89;100.00
43436;BME280;36399;51.444;-2.018;2024-03-06T12:11:38;100928.66;;;15.07;100.00
43436;BME280;36399;51.444;-2.018;2024-03-06T12:14:04;100967.53;;;16.33;100.00
43436;BME280;36399;51.444;-2.018;2024-03-06T12:16:31;100820.84;;;16.47;100.00
43436;BME280;36399;51.444;-2.018;2024-03-06T12:18:58;99956.03;;;16.51;100.00
43436;BME280;36399;51.444;-2.018;2024-03-06T12:21:42;100118.19;;;17.22;100.00
43436;BME280;36399;51.444;-2.018;2024-03-06T12:24:08;100639.00;;;17.27;100.00
43436;BME280;36399;51.444;-2.018;2024-03-06T12:26:36;100931.72;;;19.04;100.00
43436;BME280;36399;51.444;-2.018;2024-03-06T12:31:32;101078.81;;;16.27;100.00
43436;BME280;36399;51.444;-2.018;2024-03-06T12:33:59;101069.97;;;16.40;100.00
43436;BME280;36399;51.444;-2.018;2024-03-06T12:36:25;101073.97;;;17.73;100.00
43436;BME280;36399;51.444;-2.018;2024-03-06T12:38:55;101105.19;;;18.53;100.00